Time;durP1;ratioP1;P1;durP2;ratioP2;P2;SDS_P1;SDS_P2;PMS_P1;PMS_P2;Temp;Humidity;BMP_temperature;BMP_pressure;BME280_temperature;BME280_humidity;BME280_pressure;Samples;Min_cycle;Max_cycle;Signal;HPM_P1;HPM_P2
2023/01/27 00:00:15;;;;;;;12.10;9.23;;;16.30;56.40;17.30;101368.00;;;;5027247;28;20199;-47
2023/01/27 00:02:42;;;;;;;14.07;8.90;;;16.40;56.40;17.30;101299.00;;;;5031965;28;20718;-47
2023/01/27 00:05:08;;;;;;;10.70;9.53;;;16.30;56.40;17.30;101381.00;;;;5032310;28;20551;-47
2023/01/27 00:07:34;;;;;;;14.30;9.07;;;16.30;56.30;17.30;101381.00;;;;5031955;28;20179;-48
2023/01/27 00:10:00;;;;;;;12.03;8.90;;;16.30;56.50;17.30;101381.00;;;;5032432;28;20198;-47
2023/01/27 00:15:11;;;;;;;10.07;8.73;;;16.30;56.30;17.20;101377.00;;;;5032182;28;20251;-47
2023/01/27 00:17:37;;;;;;;11.77;8.43;;;16.20;56.20;17.20;101380.00;;;;5031695;28;20195;-47
2023/01/27 00:20:03;;;;;;;10.50;8.70;;;16.20;56.30;17.20;101372.00;;;;5032046;28;20199;-46
2023/01/27 00:25:14;;;;;;;9.07;8.07;;;16.10;56.20;17.10;101370.00;;;;5031677;28;20163;-47
2023/01/27 00:27:39;;;;;;;10.53;7.93;;;16.10;56.20;17.10;101373.00;;;;5031483;28;20167;-46
2023/01/27 00:30:09;;;;;;;13.83;8.50;;;16.10;56.20;17.10;101371.00;;;;5031444;28;20306;-47
2023/01/27 00:35:19;;;;;;;10.97;7.70;;;16.10;56.20;17.00;101384.00;;;;5031749;28;20170;-47
2023/01/27 00:37:45;;;;;;;11.83;8.10;;;16.10;56.10;17.00;101378.00;;;;5031683;28;20226;-47
2023/01/27 00:40:11;;;;;;;8.90;7.83;;;16.00;56.10;17.00;101373.00;;;;5031252;28;20198;-48
2023/01/27 00:42:37;;;;;;;8.97;7.73;;;16.00;56.10;17.00;101379.00;;;;5031352;28;20341;-47
2023/01/27 00:47:48;;;;;;;7.73;6.93;;;16.00;56.20;17.00;101380.00;;;;5031700;28;20255;-48
2023/01/27 00:50:15;;;;;;;8.13;7.33;;;16.00;56.10;17.00;101375.00;;;;5031393;28;20198;-48
2023/01/27 00:52:42;;;;;;;10.20;7.57;;;16.00;56.10;16.90;101364.00;;;;5031153;28;20608;-48
2023/01/27 00:55:09;;;;;;;8.53;7.50;;;16.00;56.20;16.90;101382.00;;;;5031523;28;20174;-48
2023/01/27 00:57:36;;;;;;;8.27;7.47;;;15.90;56.00;16.90;101389.00;;;;5031344;28;20235;-48
2023/01/27 01:00:05;;;;;;;7.73;6.93;;;15.90;56.10;16.90;101392.00;;;;5031476;28;20195;-48
2023/01/27 01:02:31;;;;;;;7.60;6.80;;;15.90;56.10;16.90;101393.00;;;;5030803;28;20341;-48
2023/01/27 01:04:57;;;;;;;7.90;6.73;;;15.90;56.00;16.90;101394.00;;;;5031083;28;20258;-48
2023/01/27 01:07:23;;;;;;;8.00;7.10;;;15.90;56.20;16.90;101394.00;;;;5033615;28;20207;-48
2023/01/27 01:09:49;;;;;;;7.77;7.03;;;15.90;56.20;16.90;101405.00;;;;5034090;28;20191;-48
2023/01/27 01:12:14;;;;;;;7.37;6.70;;;15.90;56.20;16.90;101402.00;;;;5037578;28;20182;-48
2023/01/27 01:14:40;;;;;;;7.70;6.83;;;15.80;56.10;16.80;101399.00;;;;5033713;28;20573;-48
2023/01/27 01:17:06;;;;;;;7.50;6.80;;;15.80;56.10;16.80;101412.00;;;;5031409;28;20262;-48
2023/01/27 01:19:32;;;;;;;6.90;6.20;;;15.90;56.20;16.80;101401.00;;;;5033053;28;20183;-48
2023/01/27 01:21:57;;;;;;;7.80;7.00;;;15.80;56.20;16.80;101410.00;;;;5033675;28;20175;-48
2023/01/27 01:24:23;;;;;;;7.47;6.20;;;15.80;56.20;16.80;101406.00;;;;5030675;28;20167;-48
2023/01/27 01:26:49;;;;;;;7.33;6.63;;;15.80;56.20;16.70;101394.00;;;;5030646;28;20214;-47
2023/01/27 01:29:15;;;;;;;6.80;6.20;;;15.80;56.20;16.70;101404.00;;;;5030566;28;20611;-47
2023/01/27 01:31:40;;;;;;;8.10;6.93;;;15.70;56.10;16.70;101414.00;;;;5030791;28;20546;-47
2023/01/27 01:34:06;;;;;;;6.57;5.90;;;15.80;56.30;16.70;101407.00;;;;5030597;28;20609;-47
2023/01/27 01:36:32;;;;;;;6.60;6.00;;;15.70;56.20;16.70;101396.00;;;;5030511;28;20198;-46
2023/01/27 01:38:58;;;;;;;6.93;6.23;;;15.80;56.30;16.20;101405.00;;;;5030683;28;20203;-49
2023/01/27 01:41:23;;;;;;;6.73;6.13;;;15.70;56.30;16.70;101409.00;;;;5030489;28;20167;-47
2023/01/27 01:43:49;;;;;;;6.50;5.90;;;15.70;56.30;16.70;101409.00;;;;5030846;28;20216;-47
2023/01/27 01:46:15;;;;;;;7.30;6.13;;;15.70;56.40;16.70;101402.00;;;;5033058;28;20174;-47
2023/01/27 01:48:51;;;;;;;6.37;5.77;;;15.70;56.40;16.40;101401.00;;;;5049275;28;20195;-47
2023/01/27 01:51:41;;;;;;;6.70;6.07;;;15.70;56.40;16.60;101395.00;;;;5048309;28;20158;-47
2023/01/27 01:54:11;;;;;;;6.47;5.87;;;15.70;56.40;16.60;101410.00;;;;5031162;28;20156;-47
2023/01/27 01:56:44;;;;;;;6.23;5.63;;;15.70;56.40;16.60;101422.00;;;;5031582;28;20270;-47
2023/01/27 01:59:18;;;;;;;6.57;5.87;;;15.70;56.50;16.60;101420.00;;;;5028704;28;20648;-48
2023/01/27 02:01:43;;;;;;;6.10;5.50;;;15.70;57.10;16.60;101413.00;;;;5028888;28;20155;-48
2023/01/27 02:04:14;;;;;;;6.17;5.57;;;15.70;56.40;16.60;101425.00;;;;5028970;28;20679;-48
2023/01/27 02:06:46;;;;;;;6.37;5.77;;;15.60;56.40;16.50;101423.00;;;;5028753;28;20281;-49
2023/01/27 02:09:12;;;;;;;6.17;5.57;;;15.60;56.40;16.50;101425.00;;;;5028658;28;20186;-48
2023/01/27 02:11:38;;;;;;;5.93;5.43;;;15.60;56.50;16.50;101429.00;;;;5028692;28;20167;-48
2023/01/27 02:14:03;;;;;;;6.10;5.50;;;15.60;56.40;16.50;101433.00;;;;5029864;28;20602;-48
2023/01/27 02:16:29;;;;;;;6.10;5.50;;;15.50;56.40;16.50;101422.00;;;;5029656;28;20179;-48
2023/01/27 02:18:55;;;;;;;5.57;5.07;;;15.50;56.50;16.40;101435.00;;;;5028123;28;20695;-47
2023/01/27 02:21:20;;;;;;;5.80;5.30;;;15.50;56.50;16.40;101424.00;;;;5029071;28;20179;-47
2023/01/27 02:23:59;;;;;;;5.73;5.23;;;15.50;56.60;16.40;101427.00;;;;5028822;28;20171;-47
2023/01/27 02:26:34;;;;;;;6.17;5.57;;;15.50;56.60;16.40;101427.00;;;;5028773;28;20167;-47
2023/01/27 02:29:06;;;;;;;5.13;4.67;;;15.50;56.70;16.40;101422.00;;;;5028154;28;20169;-48
2023/01/27 02:31:32;;;;;;;5.83;5.23;;;15.50;56.70;16.30;101428.00;;;;5028334;28;20175;-49
2023/01/27 02:34:08;;;;;;;5.47;4.80;;;15.40;56.60;16.30;101413.00;;;;5029259;28;20175;-47
2023/01/27 02:36:37;;;;;;;6.30;5.27;;;15.40;56.80;16.30;101414.00;;;;5028395;28;20195;-47
2023/01/27 02:39:04;;;;;;;5.20;4.70;;;15.40;56.70;16.30;101422.00;;;;5028379;28;20167;-47
2023/01/27 02:41:37;;;;;;;5.20;4.70;;;15.40;56.70;16.30;101421.00;;;;5028162;28;20207;-47
2023/01/27 02:44:03;;;;;;;4.83;4.43;;;15.40;56.80;16.30;101433.00;;;;5034898;28;20171;-48
2023/01/27 02:46:29;;;;;;;4.87;4.37;;;15.40;56.70;16.30;101426.00;;;;5031286;28;20183;-47
2023/01/27 02:48:55;;;;;;;5.50;5.00;;;15.40;56.80;16.20;101445.00;;;;5029011;28;20159;-48
2023/01/27 02:51:20;;;;;;;5.63;5.13;;;15.40;56.80;16.20;101439.00;;;;5029096;28;20173;-47
2023/01/27 02:53:46;;;;;;;5.30;4.80;;;15.30;56.60;16.20;101443.00;;;;5029165;28;20676;-48
2023/01/27 02:56:12;;;;;;;4.73;4.33;;;15.40;56.80;16.00;101426.00;;;;5028945;28;20167;-48
2023/01/27 02:58:37;;;;;;;5.10;4.70;;;15.30;56.70;16.20;101430.00;;;;5027837;28;20206;-48
2023/01/27 03:01:03;;;;;;;4.83;4.43;;;15.30;56.70;16.20;101424.00;;;;5029017;28;20183;-47
2023/01/27 03:03:29;;;;;;;4.70;4.30;;;15.30;56.70;16.20;101443.00;;;;5028866;28;20175;-47
2023/01/27 03:05:55;;;;;;;4.60;4.20;;;15.30;56.70;16.20;101442.00;;;;5028841;28;20220;-48
2023/01/27 03:08:21;;;;;;;4.60;4.20;;;15.30;56.70;16.20;101443.00;;;;5029042;28;20250;-48
2023/01/27 03:10:51;;;;;;;4.80;4.40;;;15.30;56.80;16.20;101443.00;;;;5028437;28;20203;-48
2023/01/27 03:13:23;;;;;;;4.70;4.30;;;15.30;56.70;16.20;101430.00;;;;5028561;28;20756;-48
2023/01/27 03:18:34;;;;;;;4.33;3.93;;;15.20;56.70;16.20;101433.00;;;;5028592;28;20761;-49
2023/01/27 03:21:03;;;;;;;4.30;3.90;;;15.20;56.70;16.10;101443.00;;;;5028432;28;20206;-47
2023/01/27 03:23:33;;;;;;;4.47;4.07;;;15.20;56.60;16.10;101443.00;;;;5028758;28;20171;-47
2023/01/27 03:25:59;;;;;;;4.50;4.03;;;15.30;56.80;16.10;101436.00;;;;5028937;28;20167;-48
2023/01/27 03:28:24;;;;;;;4.40;4.00;;;15.20;56.60;16.10;101395.00;;;;5028705;28;20644;-47
2023/01/27 03:30:50;;;;;;;4.33;3.93;;;15.20;56.70;16.10;101446.00;;;;5028259;28;20213;-47
2023/01/27 03:33:16;;;;;;;4.67;4.27;;;15.20;56.70;16.10;101448.00;;;;5028255;28;20171;-47
2023/01/27 03:35:47;;;;;;;4.10;3.80;;;15.20;56.60;16.10;101440.00;;;;5030667;28;20529;-48
2023/01/27 03:46:27;;;;;;;4.00;3.70;;;15.10;56.50;16.00;101451.00;;;;5036491;28;20282;-47
2023/01/27 03:48:54;;;;;;;3.93;3.63;;;15.10;56.50;16.00;101457.00;;;;5032676;28;20171;-48
2023/01/27 03:51:22;;;;;;;3.90;3.60;;;15.10;56.50;16.00;101449.00;;;;5032240;28;20167;-48
2023/01/27 03:53:48;;;;;;;4.10;3.70;;;15.10;56.70;16.00;101448.00;;;;5032588;28;20175;-47
2023/01/27 03:56:15;;;;;;;3.63;3.33;;;15.10;56.60;16.00;101433.00;;;;5032183;28;20181;-47
2023/01/27 03:58:40;;;;;;;4.10;3.70;;;15.10;56.50;16.00;101452.00;;;;5033547;28;20310;-48
2023/01/27 04:01:20;;;;;;;3.70;3.40;;;15.10;56.50;16.00;101449.00;;;;5037559;28;20210;-48
2023/01/27 04:09:20;;;;;;;3.70;3.40;;;15.00;56.60;16.00;101453.00;;;;5032240;28;20201;-47
2023/01/27 04:11:55;;;;;;;3.90;3.60;;;15.10;56.60;15.90;101456.00;;;;5032750;28;20175;-47
2023/01/27 04:14:22;;;;;;;3.93;3.63;;;15.00;56.40;15.90;101457.00;;;;5032611;28;20155;-48
2023/01/27 04:16:47;;;;;;;3.93;3.53;;;15.00;56.40;15.90;101449.00;;;;5034715;28;20567;-49
2023/01/27 04:19:13;;;;;;;3.50;3.20;;;15.00;56.40;15.90;101458.00;;;;5032049;28;20190;-47
2023/01/27 04:21:39;;;;;;;3.90;3.50;;;15.00;56.50;15.90;101455.00;;;;5031400;28;20258;-48
2023/01/27 04:24:15;;;;;;;3.50;3.20;;;15.00;56.40;15.90;101448.00;;;;5032064;28;20174;-48
2023/01/27 04:26:45;;;;;;;3.57;3.27;;;15.00;56.40;15.90;101445.00;;;;5031758;28;20155;-48
2023/01/27 04:29:13;;;;;;;3.60;3.30;;;15.00;56.50;15.90;101456.00;;;;5039411;28;20351;-47
2023/01/27 04:31:39;;;;;;;3.50;3.20;;;14.90;56.40;15.90;101460.00;;;;5031305;28;20175;-47
2023/01/27 04:34:06;;;;;;;3.83;3.33;;;14.90;57.00;15.90;101457.00;;;;5031219;28;20174;-48
2023/01/27 04:36:31;;;;;;;3.47;3.17;;;14.90;56.70;15.80;101453.00;;;;5031271;28;20189;-49
2023/01/27 04:38:57;;;;;;;4.70;3.00;;;14.90;57.00;15.80;101458.00;;;;5031126;28;20257;-48
2023/01/27 04:41:23;;;;;;;5.43;3.40;;;14.90;56.60;15.80;101454.00;;;;5031195;28;20171;-47
2023/01/27 04:43:49;;;;;;;3.50;3.20;;;14.90;57.10;15.80;101461.00;;;;5031453;28;20265;-47
2023/01/27 04:46:15;;;;;;;3.90;3.10;;;14.90;56.60;15.80;101453.00;;;;5031253;28;20229;-46
2023/01/27 04:48:40;;;;;;;5.33;3.10;;;14.90;56.60;15.80;101459.00;;;;5031822;28;20581;-46
2023/01/27 04:51:06;;;;;;;4.17;3.50;;;14.90;56.50;15.80;101456.00;;;;5031427;28;20191;-48
2023/01/27 04:53:32;;;;;;;3.40;3.10;;;14.80;56.40;15.80;101468.00;;;;5031583;28;20167;-47
2023/01/27 04:56:06;;;;;;;4.10;3.20;;;14.80;56.30;15.70;101467.00;;;;5031778;28;20237;-47
2023/01/27 04:58:32;;;;;;;3.43;3.10;;;14.80;56.20;15.70;101465.00;;;;5031678;28;20194;-47
2023/01/27 05:00:58;;;;;;;6.53;3.40;;;14.80;56.10;15.70;101467.00;;;;5031712;28;20234;-48
2023/01/27 05:03:23;;;;;;;4.17;3.20;;;14.80;56.00;15.70;101478.00;;;;5030988;28;20256;-47
2023/01/27 05:05:50;;;;;;;3.83;3.20;;;14.80;55.90;15.70;101477.00;;;;5031382;28;20171;-47
2023/01/27 05:08:16;;;;;;;4.90;3.30;;;14.80;55.90;15.70;101477.00;;;;5031273;28;20266;-47
2023/01/27 05:10:44;;;;;;;3.70;3.40;;;14.70;55.80;15.70;101480.00;;;;5031493;28;20281;-47
2023/01/27 05:13:10;;;;;;;3.43;3.17;;;14.70;55.70;15.70;101484.00;;;;5031065;28;20178;-46
2023/01/27 05:15:36;;;;;;;3.60;3.30;;;14.70;55.70;15.60;101481.00;;;;5031695;28;20179;-47
2023/01/27 05:18:02;;;;;;;3.80;3.40;;;14.70;55.60;15.60;101489.00;;;;5031128;28;20206;-49
2023/01/27 05:20:27;;;;;;;3.30;3.00;;;14.70;55.50;15.60;101492.00;;;;5031154;28;20225;-47
2023/01/27 05:23:33;;;;;;;3.60;3.30;;;14.70;55.50;15.60;101494.00;;;;5030685;28;20248;-48
2023/01/27 05:25:45;;;;;;;3.53;3.23;;;14.70;55.40;15.60;101496.00;;;;5022251;28;20183;-47
2023/01/27 05:28:11;;;;;;;3.17;2.93;;;14.60;55.30;15.50;101494.00;;;;5015567;28;20185;-47
2023/01/27 05:30:36;;;;;;;3.17;2.90;;;14.70;55.30;15.50;101494.00;;;;5011003;28;20196;-47
2023/01/27 05:33:02;;;;;;;3.37;3.03;;;14.70;55.30;15.50;101500.00;;;;5010648;28;20722;-48
2023/01/27 05:35:31;;;;;;;3.20;2.90;;;14.60;55.20;15.50;101504.00;;;;5011241;28;20527;-47
2023/01/27 05:37:57;;;;;;;3.70;3.10;;;14.60;55.20;15.50;101496.00;;;;5009884;28;20207;-48
2023/01/27 05:40:22;;;;;;;3.30;3.00;;;14.60;55.20;15.50;101501.00;;;;5010773;28;20695;-47
2023/01/27 05:42:51;;;;;;;3.53;2.80;;;14.60;55.20;15.50;101490.00;;;;5010713;28;20692;-49
2023/01/27 05:45:16;;;;;;;4.47;2.90;;;14.50;55.10;15.50;101500.00;;;;5011051;28;20168;-46
2023/01/27 05:47:42;;;;;;;6.13;2.97;;;14.60;55.10;15.50;101509.00;;;;5010770;28;20552;-47
2023/01/27 05:50:09;;;;;;;8.03;3.57;;;14.50;55.10;15.40;101432.00;;;;5010404;28;20200;-48
2023/01/27 05:52:34;;;;;;;8.67;3.80;;;14.50;55.00;15.40;101499.00;;;;5009605;28;20772;-48
2023/01/27 05:55:00;;;;;;;6.73;3.70;;;14.50;55.00;15.40;101516.00;;;;5010168;28;20172;-48
2023/01/27 05:57:26;;;;;;;12.50;4.07;;;14.50;55.00;15.40;101511.00;;;;5010164;28;20207;-47
2023/01/27 05:59:51;;;;;;;8.23;3.80;;;14.50;55.00;15.40;101518.00;;;;5009580;28;20187;-48
2023/01/27 06:02:17;;;;;;;6.90;3.90;;;14.50;55.00;15.40;101509.00;;;;5009997;28;20199;-47
2023/01/27 06:04:43;;;;;;;10.03;3.27;;;14.50;55.00;15.40;101502.00;;;;5010113;28;20156;-47
2023/01/27 06:07:08;;;;;;;10.70;3.50;;;14.50;55.00;15.40;101517.00;;;;5010149;28;20593;-47
2023/01/27 06:09:34;;;;;;;7.90;3.50;;;14.50;55.00;15.30;101507.00;;;;5010465;28;20218;-47
2023/01/27 06:12:00;;;;;;;5.70;3.53;;;14.40;55.00;15.30;101512.00;;;;5015826;28;20183;-47
2023/01/27 06:14:26;;;;;;;7.17;3.53;;;14.40;55.00;15.30;101506.00;;;;5012894;28;20636;-47
2023/01/27 06:16:52;;;;;;;6.73;3.43;;;14.40;55.10;15.30;101510.00;;;;5015683;28;20229;-47
2023/01/27 06:19:18;;;;;;;5.20;3.60;;;14.40;55.10;15.30;101501.00;;;;5013779;28;20199;-48
2023/01/27 06:21:43;;;;;;;5.80;3.30;;;14.40;55.20;15.30;101507.00;;;;5010986;28;20176;-48
2023/01/27 06:24:09;;;;;;;4.10;3.13;;;14.40;55.30;15.30;101507.00;;;;5010558;28;20168;-47
2023/01/27 06:26:35;;;;;;;5.83;3.47;;;14.40;55.30;15.30;101507.00;;;;5010007;28;20167;-47
2023/01/27 06:29:01;;;;;;;5.77;3.20;;;14.30;55.20;15.30;101506.00;;;;5009948;28;20171;-47
2023/01/27 06:31:27;;;;;;;7.93;3.23;;;14.40;55.30;15.20;101509.00;;;;5009585;28;20225;-48
2023/01/27 06:33:52;;;;;;;4.67;3.17;;;14.30;55.20;15.20;101510.00;;;;5009682;28;20174;-48
2023/01/27 06:36:20;;;;;;;7.73;3.30;;;14.30;55.20;15.20;101520.00;;;;5009883;28;20182;-47
2023/01/27 06:38:45;;;;;;;5.90;3.50;;;14.30;55.40;15.20;101523.00;;;;5009595;28;20203;-47
2023/01/27 06:41:11;;;;;;;5.00;3.10;;;14.30;55.40;15.20;101516.00;;;;5018596;28;20191;-47
2023/01/27 06:43:37;;;;;;;4.17;2.87;;;14.30;55.40;15.20;101521.00;;;;5015398;28;20633;-47
2023/01/27 06:46:03;;;;;;;7.00;3.07;;;14.30;55.50;15.20;101532.00;;;;5008713;28;20179;-48
2023/01/27 06:48:28;;;;;;;3.23;2.60;;;14.30;55.50;15.20;101539.00;;;;5009761;28;20664;-47
2023/01/27 06:50:55;;;;;;;2.90;2.53;;;14.30;55.50;15.20;101545.00;;;;5009528;28;20207;-48
2023/01/27 06:53:20;;;;;;;4.77;2.60;;;14.30;55.60;15.20;101551.00;;;;5009286;28;20211;-48
2023/01/27 06:55:46;;;;;;;4.37;2.80;;;14.30;55.60;15.20;101556.00;;;;5009444;28;20299;-48
2023/01/27 06:58:13;;;;;;;4.67;2.60;;;14.30;55.60;15.20;101545.00;;;;5009023;28;20203;-47
2023/01/27 07:00:39;;;;;;;3.43;2.60;;;14.20;55.50;15.20;101540.00;;;;5008214;28;20191;-47
2023/01/27 07:03:05;;;;;;;3.77;2.50;;;14.20;55.60;15.20;101529.00;;;;5009249;28;20179;-48
2023/01/27 07:05:32;;;;;;;3.73;2.60;;;14.20;55.60;15.20;101545.00;;;;5008421;28;20163;-48
2023/01/27 07:07:58;;;;;;;3.97;2.50;;;14.30;55.70;15.20;101551.00;;;;5009701;28;20176;-48
2023/01/27 07:10:24;;;;;;;3.80;2.50;;;14.20;55.60;15.20;101545.00;;;;5009129;28;20256;-47
2023/01/27 07:12:49;;;;;;;4.03;2.50;;;14.30;55.70;15.20;101565.00;;;;5009172;28;20581;-47
2023/01/27 07:15:15;;;;;;;3.23;2.60;;;14.20;55.60;15.10;101556.00;;;;5009315;28;20172;-47
2023/01/27 07:17:42;;;;;;;2.80;2.37;;;14.20;55.70;15.10;101556.00;;;;5008573;28;20274;-47
2023/01/27 07:20:11;;;;;;;3.33;2.60;;;14.20;55.70;15.10;101555.00;;;;5007886;28;20203;-47
2023/01/27 07:22:36;;;;;;;4.10;2.50;;;14.20;55.70;15.10;101569.00;;;;5009033;28;20214;-47
2023/01/27 07:25:03;;;;;;;2.63;2.43;;;14.20;55.70;15.10;101566.00;;;;5009266;28;20196;-48
2023/01/27 07:27:29;;;;;;;2.83;2.50;;;14.20;55.70;15.10;101560.00;;;;5009057;28;20179;-47
2023/01/27 07:29:55;;;;;;;3.80;2.40;;;14.20;55.80;15.10;101557.00;;;;5009311;28;20575;-49
2023/01/27 07:32:20;;;;;;;3.77;2.40;;;14.20;55.80;15.10;101574.00;;;;5008732;28;20230;-47
2023/01/27 07:34:46;;;;;;;2.50;2.30;;;14.10;55.70;15.10;101568.00;;;;5011024;28;20175;-47
2023/01/27 07:37:13;;;;;;;3.60;2.57;;;14.20;55.80;15.10;101570.00;;;;5008922;28;20579;-47
2023/01/27 07:39:38;;;;;;;3.50;2.40;;;14.10;55.70;15.10;101575.00;;;;5009136;28;20287;-47
2023/01/27 07:42:05;;;;;;;2.13;2.03;;;14.20;55.80;15.00;101568.00;;;;5008506;28;20168;-48
2023/01/27 07:44:30;;;;;;;2.33;2.13;;;14.10;55.70;15.00;101570.00;;;;5010224;28;20172;-48
2023/01/27 07:46:57;;;;;;;2.50;2.30;;;14.10;55.70;15.00;101573.00;;;;5009194;28;20180;-47
2023/01/27 07:49:23;;;;;;;2.77;2.30;;;14.20;55.80;15.00;101577.00;;;;5008799;28;20860;-47
2023/01/27 07:51:48;;;;;;;2.47;2.20;;;14.10;55.80;15.00;101573.00;;;;5007751;28;20179;-47
2023/01/27 07:54:14;;;;;;;3.20;2.40;;;14.10;55.70;15.00;101569.00;;;;5010317;28;20179;-47
2023/01/27 07:56:40;;;;;;;3.17;2.23;;;14.10;55.70;15.00;101583.00;;;;5018161;28;20187;-47
2023/01/27 07:59:06;;;;;;;2.53;2.30;;;14.10;55.90;15.00;101574.00;;;;5009051;28;20196;-47
2023/01/27 08:01:32;;;;;;;3.17;2.50;;;14.10;55.90;15.00;101573.00;;;;5008635;28;20175;-46
2023/01/27 08:03:58;;;;;;;2.50;2.30;;;14.10;56.00;15.00;101572.00;;;;5009613;28;20174;-47
2023/01/27 08:06:24;;;;;;;4.10;2.07;;;14.00;56.00;15.00;101582.00;;;;5010552;28;20237;-47
2023/01/27 08:08:50;;;;;;;3.30;2.30;;;14.10;56.10;15.00;101582.00;;;;5007661;28;20172;-47
2023/01/27 08:11:15;;;;;;;2.17;2.03;;;14.00;55.90;15.00;101586.00;;;;5007257;28;20704;-47
2023/01/27 08:13:41;;;;;;;9.07;2.53;;;14.00;56.10;14.90;101600.00;;;;5029981;28;20187;-47
2023/01/27 08:16:10;;;;;;;3.47;2.23;;;14.00;56.50;15.00;101596.00;;;;5039298;28;20172;-47
2023/01/27 08:18:36;;;;;;;2.20;2.00;;;14.00;56.60;15.00;101588.00;;;;5037733;28;20199;-47
2023/01/27 08:21:03;;;;;;;3.63;2.43;;;14.10;56.80;15.00;101590.00;;;;5028587;28;20203;-48
2023/01/27 08:23:29;;;;;;;5.50;2.20;;;14.10;57.10;15.00;101589.00;;;;5033004;28;20175;-47
2023/01/27 08:25:57;;;;;;;4.50;2.23;;;14.20;57.10;15.10;101576.00;;;;5033891;28;20258;-48
2023/01/27 08:28:23;;;;;;;3.27;2.20;;;14.20;57.10;15.10;101580.00;;;;5031945;28;20313;-47
2023/01/27 08:30:52;;;;;;;4.63;2.07;;;14.30;57.00;15.20;101581.00;;;;5031805;28;20199;-47
2023/01/27 08:33:19;;;;;;;4.03;2.30;;;14.40;57.10;15.20;101580.00;;;;5032093;28;20220;-47
2023/01/27 08:35:45;;;;;;;2.80;2.07;;;14.50;57.00;15.30;101582.00;;;;5030654;28;20649;-48
2023/01/27 08:38:11;;;;;;;3.50;2.10;;;14.60;56.90;15.40;101586.00;;;;5031579;28;20278;-48
2023/01/27 08:40:41;;;;;;;2.07;1.80;;;14.60;56.90;15.50;101582.00;;;;5030042;28;20198;-47
2023/01/27 08:43:07;;;;;;;2.50;1.70;;;14.80;56.90;15.60;101575.00;;;;5031432;28;20171;-47
2023/01/27 08:45:33;;;;;;;3.23;2.10;;;14.80;56.70;15.70;101557.00;;;;5034029;28;20585;-47
2023/01/27 08:47:59;;;;;;;2.07;1.90;;;14.90;56.70;15.80;101584.00;;;;5034798;28;20210;-48
2023/01/27 08:50:24;;;;;;;2.53;1.77;;;15.00;56.80;15.80;101579.00;;;;5031794;28;20230;-47
2023/01/27 08:52:50;;;;;;;2.00;1.73;;;15.20;56.80;16.00;101572.00;;;;5030972;28;20179;-47
2023/01/27 08:55:16;;;;;;;2.63;2.00;;;15.30;56.70;16.10;101579.00;;;;5031650;28;20175;-48
2023/01/27 08:57:42;;;;;;;2.23;1.67;;;15.40;56.60;16.20;101580.00;;;;5035991;28;20688;-47
2023/01/27 09:00:08;;;;;;;2.03;1.83;;;15.50;56.60;16.20;101580.00;;;;5033784;28;20191;-48
2023/01/27 09:02:34;;;;;;;2.23;1.80;;;15.60;56.60;16.30;101578.00;;;;5029646;28;20174;-47
2023/01/27 09:05:00;;;;;;;2.10;1.70;;;15.60;56.40;16.40;101576.00;;;;5031098;28;20159;-49
2023/01/27 09:07:26;;;;;;;1.83;1.73;;;15.80;56.50;16.50;101580.00;;;;5031216;28;20198;-47
2023/01/27 09:09:51;;;;;;;2.10;1.90;;;15.80;56.40;16.60;101586.00;;;;5031149;28;20779;-48
2023/01/27 09:12:17;;;;;;;1.93;1.77;;;15.90;56.40;16.70;101583.00;;;;5030192;28;20220;-49
2023/01/27 09:14:43;;;;;;;5.47;1.90;;;16.00;56.50;16.80;101585.00;;;;5031173;28;20213;-47
2023/01/27 09:17:08;;;;;;;6.87;2.33;;;16.10;56.60;16.80;101586.00;;;;5030925;28;20202;-47
2023/01/27 09:19:34;;;;;;;4.43;1.93;;;16.10;56.80;16.90;101586.00;;;;5030500;28;20850;-48
2023/01/27 09:22:01;;;;;;;3.73;1.70;;;16.20;56.70;17.00;101591.00;;;;5034604;28;20159;-52
2023/01/27 09:24:27;;;;;;;5.77;2.10;;;16.30;56.70;17.10;101593.00;;;;5041829;28;20171;-47
2023/01/27 09:26:53;;;;;;;2.37;1.80;;;16.30;56.90;17.10;101596.00;;;;5032629;28;20174;-47
2023/01/27 09:29:19;;;;;;;3.47;1.87;;;16.30;56.90;17.20;101600.00;;;;5031204;28;20200;-46
2023/01/27 09:31:44;;;;;;;3.00;1.77;;;16.40;56.90;17.30;101592.00;;;;5031164;28;20612;-46
2023/01/27 09:34:10;;;;;;;1.90;1.60;;;16.50;56.90;17.40;101584.00;;;;5029720;28;20258;-47
2023/01/27 09:36:43;;;;;;;2.90;1.70;;;16.50;56.70;17.50;101613.00;;;;5030852;28;20176;-47
2023/01/27 09:39:09;;;;;;;5.10;1.60;;;16.60;56.70;17.50;101609.00;;;;5034737;28;20187;-48
2023/01/27 09:42:06;;;;;;;4.67;1.73;;;16.60;56.50;17.60;101612.00;;;;5032781;28;20653;-47
2023/01/27 09:44:45;;;;;;;3.40;1.50;;;16.70;56.60;17.60;101605.00;;;;5029525;28;20210;-47
2023/01/27 09:47:27;;;;;;;4.40;1.80;;;16.80;56.60;17.60;101627.00;;;;5029843;28;20156;-47
2023/01/27 09:50:18;;;;;;;5.97;1.83;;;16.80;56.50;17.70;101627.00;;;;5029653;28;20191;-47
2023/01/27 09:52:58;;;;;;;4.90;1.60;;;16.80;56.40;17.70;101627.00;;;;5029211;28;20210;-48
2023/01/27 09:55:53;;;;;;;2.93;1.90;;;16.80;56.20;17.70;101628.00;;;;5029557;28;20165;-47
2023/01/27 09:59:03;;;;;;;5.13;1.70;;;16.90;56.30;17.70;101644.00;;;;5029460;28;20562;-47
2023/01/27 10:01:42;;;;;;;4.77;1.77;;;16.90;56.30;17.70;101644.00;;;;5029185;28;20156;-49
2023/01/27 10:04:24;;;;;;;3.43;1.70;;;16.90;56.30;17.70;101645.00;;;;5029421;28;20192;-46
2023/01/27 10:07:31;;;;;;;1.73;1.57;;;16.90;56.30;17.80;101642.00;;;;5030627;28;20163;-47
2023/01/27 10:10:18;;;;;;;3.43;1.70;;;16.90;56.30;17.80;101636.00;;;;5028339;28;20203;-47
2023/01/27 10:13:21;;;;;;;2.37;1.70;;;17.00;56.40;17.80;101642.00;;;;5028783;28;20222;-48
2023/01/27 10:16:12;;;;;;;2.53;1.80;;;17.00;56.40;17.80;101641.00;;;;5029833;28;20266;-47
2023/01/27 10:19:28;;;;;;;2.13;1.63;;;17.00;56.30;17.80;101635.00;;;;5030089;28;20207;-48
2023/01/27 10:22:28;;;;;;;3.47;1.63;;;17.00;56.30;17.80;101633.00;;;;5027793;28;20187;-47
2023/01/27 10:25:18;;;;;;;1.90;1.80;;;17.00;56.20;17.90;101637.00;;;;5028764;28;20183;-47
2023/01/27 10:27:47;;;;;;;2.70;1.53;;;17.10;56.30;17.90;101632.00;;;;5029991;28;20164;-47
2023/01/27 10:30:33;;;;;;;2.17;1.40;;;17.10;56.20;17.90;101633.00;;;;5030282;28;20202;-47
2023/01/27 10:33:18;;;;;;;1.70;1.30;;;17.10;56.20;17.90;101636.00;;;;5032066;28;20564;-47
2023/01/27 10:35:52;;;;;;;1.73;1.60;;;17.20;56.20;18.00;101621.00;;;;5035015;28;20155;-46
2023/01/27 10:38:35;;;;;;;1.50;1.40;;;17.20;56.10;18.00;101617.00;;;;5033594;28;20201;-47
2023/01/27 10:41:22;;;;;;;1.90;1.50;;;17.20;56.10;18.10;101632.00;;;;5029811;28;20192;-47
2023/01/27 10:44:33;;;;;;;1.50;1.40;;;17.30;56.10;18.10;101627.00;;;;5028730;28;20250;-48
2023/01/27 10:47:23;;;;;;;1.40;1.30;;;17.30;56.10;18.10;101629.00;;;;5028775;28;20268;-47
2023/01/27 10:50:10;;;;;;;1.60;1.20;;;17.30;56.00;18.20;101618.00;;;;5028625;28;20715;-47
2023/01/27 10:52:41;;;;;;;1.50;1.40;;;17.40;56.10;18.20;101624.00;;;;5028497;28;20167;-47
2023/01/27 10:55:37;;;;;;;1.07;1.07;;;17.40;56.00;18.20;101632.00;;;;5028796;28;20165;-47
2023/01/27 10:58:15;;;;;;;1.73;1.40;;;17.50;56.00;18.20;101632.00;;;;5029268;28;20349;-47
2023/01/27 11:00:41;;;;;;;2.63;1.40;;;17.50;56.00;18.30;101628.00;;;;5028487;28;20656;-46
2023/01/27 11:03:46;;;;;;;2.97;1.50;;;17.50;56.00;18.30;101633.00;;;;5028825;28;20186;-47
2023/01/27 11:06:19;;;;;;;4.13;1.50;;;17.50;56.00;18.30;101641.00;;;;5011729;28;20184;-47
2023/01/27 11:08:46;;;;;;;1.70;1.30;;;17.50;56.00;18.30;101621.00;;;;5028731;28;20641;-47
2023/01/27 11:14:31;;;;;;;2.67;1.30;;;17.60;56.00;18.40;101620.00;;;;5029063;28;20243;-47
2023/01/27 11:17:37;;;;;;;2.53;1.47;;;17.50;55.90;18.40;101635.00;;;;5034559;28;20226;-47
2023/01/27 11:20:29;;;;;;;1.77;1.40;;;17.60;55.90;18.40;101636.00;;;;5029769;28;20205;-47
2023/01/27 11:23:17;;;;;;;1.43;1.33;;;17.60;55.90;18.40;101630.00;;;;5030756;28;20251;-47
2023/01/27 11:26:20;;;;;;;1.90;1.30;;;17.60;56.00;18.40;101625.00;;;;5032495;28;20167;-47
2023/01/27 11:29:24;;;;;;;1.50;1.40;;;17.60;56.00;18.40;101630.00;;;;5028536;28;20214;-47